sensor_id;sensor_type;location;lat;lon;timestamp;P1;durP1;ratioP1;P2;durP2;ratioP2
46561;SDS011;32289;42.688;23.330;2023-04-01T00:02:55;16.25;;;7.82;;
46561;SDS011;32289;42.688;23.330;2023-04-01T00:06:36;13.23;;;6.30;;
46561;SDS011;32289;42.688;23.330;2023-04-01T00:10:17;11.55;;;5.90;;
46561;SDS011;32289;42.688;23.330;2023-04-01T00:13:57;18.17;;;6.35;;
46561;SDS011;32289;42.688;23.330;2023-04-01T00:17:38;12.82;;;6.00;;
46561;SDS011;32289;42.688;23.330;2023-04-01T00:21:19;12.00;;;5.88;;
46561;SDS011;32289;42.688;23.330;2023-04-01T00:25:00;13.35;;;5.28;;
46561;SDS011;32289;42.688;23.330;2023-04-01T00:28:41;11.05;;;6.00;;
46561;SDS011;32289;42.688;23.330;2023-04-01T00:32:22;10.60;;;5.13;;
46561;SDS011;32289;42.688;23.330;2023-04-01T00:36:10;11.48;;;4.68;;
46561;SDS011;32289;42.688;23.330;2023-04-01T00:43:34;14.57;;;5.50;;
46561;SDS011;32289;42.688;23.330;2023-04-01T00:47:15;18.70;;;5.38;;
46561;SDS011;32289;42.688;23.330;2023-04-01T00:54:40;18.15;;;5.07;;
46561;SDS011;32289;42.688;23.330;2023-04-01T00:58:23;17.20;;;5.63;;
46561;SDS011;32289;42.688;23.330;2023-04-01T01:02:08;14.27;;;5.15;;
46561;SDS011;32289;42.688;23.330;2023-04-01T01:13:40;10.02;;;4.88;;
46561;SDS011;32289;42.688;23.330;2023-04-01T01:17:44;7.85;;;4.65;;
46561;SDS011;32289;42.688;23.330;2023-04-01T01:29:48;8.38;;;4.38;;
46561;SDS011;32289;42.688;23.330;2023-04-01T01:33:48;8.70;;;3.90;;
46561;SDS011;32289;42.688;23.330;2023-04-01T01:37:31;9.95;;;4.43;;
46561;SDS011;32289;42.688;23.330;2023-04-01T01:41:12;12.15;;;4.57;;
46561;SDS011;32289;42.688;23.330;2023-04-01T01:44:57;6.10;;;3.47;;
46561;SDS011;32289;42.688;23.330;2023-04-01T01:48:40;11.40;;;3.08;;
46561;SDS011;32289;42.688;23.330;2023-04-01T01:52:23;10.48;;;3.42;;
46561;SDS011;32289;42.688;23.330;2023-04-01T01:56:04;9.50;;;3.63;;
46561;SDS011;32289;42.688;23.330;2023-04-01T01:59:45;7.10;;;3.92;;
46561;SDS011;32289;42.688;23.330;2023-04-01T02:03:29;5.97;;;3.20;;
46561;SDS011;32289;42.688;23.330;2023-04-01T02:07:18;9.38;;;3.85;;
46561;SDS011;32289;42.688;23.330;2023-04-01T02:11:08;5.88;;;2.63;;
46561;SDS011;32289;42.688;23.330;2023-04-01T02:14:55;6.97;;;3.67;;
46561;SDS011;32289;42.688;23.330;2023-04-01T02:18:45;7.35;;;3.30;;
46561;SDS011;32289;42.688;23.330;2023-04-01T02:22:33;9.07;;;3.55;;
46561;SDS011;32289;42.688;23.330;2023-04-01T02:26:17;8.75;;;3.75;;
46561;SDS011;32289;42.688;23.330;2023-04-01T02:29:58;9.13;;;3.78;;
46561;SDS011;32289;42.688;23.330;2023-04-01T02:33:39;8.45;;;4.00;;
46561;SDS011;32289;42.688;23.330;2023-04-01T02:37:20;7.32;;;3.22;;
46561;SDS011;32289;42.688;23.330;2023-04-01T02:41:01;10.45;;;3.50;;
46561;SDS011;32289;42.688;23.330;2023-04-01T02:44:42;7.85;;;3.45;;
46561;SDS011;32289;42.688;23.330;2023-04-01T02:48:23;8.82;;;3.80;;
46561;SDS011;32289;42.688;23.330;2023-04-01T02:52:04;7.85;;;3.47;;
46561;SDS011;32289;42.688;23.330;2023-04-01T02:55:45;12.82;;;4.03;;
46561;SDS011;32289;42.688;23.330;2023-04-01T02:59:25;8.13;;;3.80;;
46561;SDS011;32289;42.688;23.330;2023-04-01T03:03:06;6.22;;;3.03;;
46561;SDS011;32289;42.688;23.330;2023-04-01T03:06:47;8.88;;;3.40;;
46561;SDS011;32289;42.688;23.330;2023-04-01T03:10:27;10.57;;;4.63;;
46561;SDS011;32289;42.688;23.330;2023-04-01T03:14:08;10.32;;;4.68;;
46561;SDS011;32289;42.688;23.330;2023-04-01T03:17:49;13.27;;;5.55;;
46561;SDS011;32289;42.688;23.330;2023-04-01T03:21:31;13.98;;;4.38;;
46561;SDS011;32289;42.688;23.330;2023-04-01T03:25:12;15.15;;;5.18;;
46561;SDS011;32289;42.688;23.330;2023-04-01T03:28:53;13.13;;;5.00;;
46561;SDS011;32289;42.688;23.330;2023-04-01T03:32:34;14.82;;;5.75;;
46561;SDS011;32289;42.688;23.330;2023-04-01T03:36:14;12.75;;;5.47;;
46561;SDS011;32289;42.688;23.330;2023-04-01T03:39:55;10.98;;;4.65;;
46561;SDS011;32289;42.688;23.330;2023-04-01T03:43:36;12.07;;;5.50;;
46561;SDS011;32289;42.688;23.330;2023-04-01T03:47:17;11.70;;;4.70;;
46561;SDS011;32289;42.688;23.330;2023-04-01T03:50:57;15.45;;;4.72;;
46561;SDS011;32289;42.688;23.330;2023-04-01T03:54:38;13.07;;;3.92;;
46561;SDS011;32289;42.688;23.330;2023-04-01T03:58:19;10.52;;;4.70;;
46561;SDS011;32289;42.688;23.330;2023-04-01T04:02:00;11.70;;;4.47;;
46561;SDS011;32289;42.688;23.330;2023-04-01T04:05:47;9.80;;;4.97;;
46561;SDS011;32289;42.688;23.330;2023-04-01T04:09:29;14.68;;;4.90;;
46561;SDS011;32289;42.688;23.330;2023-04-01T04:13:11;9.77;;;4.63;;
46561;SDS011;32289;42.688;23.330;2023-04-01T04:16:51;15.23;;;4.88;;
46561;SDS011;32289;42.688;23.330;2023-04-01T04:20:32;9.75;;;4.43;;
46561;SDS011;32289;42.688;23.330;2023-04-01T04:24:13;7.78;;;4.30;;
46561;SDS011;32289;42.688;23.330;2023-04-01T04:27:54;10.00;;;4.35;;
46561;SDS011;32289;42.688;23.330;2023-04-01T04:31:35;11.50;;;5.10;;
46561;SDS011;32289;42.688;23.330;2023-04-01T04:35:15;8.77;;;4.15;;
46561;SDS011;32289;42.688;23.330;2023-04-01T04:38:56;11.50;;;3.90;;
46561;SDS011;32289;42.688;23.330;2023-04-01T04:42:38;8.52;;;3.88;;
46561;SDS011;32289;42.688;23.330;2023-04-01T04:46:18;10.70;;;4.78;;
46561;SDS011;32289;42.688;23.330;2023-04-01T04:50:00;13.27;;;4.53;;
46561;SDS011;32289;42.688;23.330;2023-04-01T04:53:40;9.10;;;3.42;;
46561;SDS011;32289;42.688;23.330;2023-04-01T04:57:21;9.75;;;3.38;;
46561;SDS011;32289;42.688;23.330;2023-04-01T05:01:06;6.03;;;2.90;;
46561;SDS011;32289;42.688;23.330;2023-04-01T05:04:48;8.52;;;2.83;;
46561;SDS011;32289;42.688;23.330;2023-04-01T05:08:29;6.78;;;2.85;;
46561;SDS011;32289;42.688;23.330;2023-04-01T05:12:09;6.13;;;2.67;;
46561;SDS011;32289;42.688;23.330;2023-04-01T05:15:52;8.20;;;3.33;;
46561;SDS011;32289;42.688;23.330;2023-04-01T05:19:33;8.63;;;3.47;;
46561;SDS011;32289;42.688;23.330;2023-04-01T05:23:14;8.48;;;3.05;;
46561;SDS011;32289;42.688;23.330;2023-04-01T05:26:55;8.25;;;3.38;;
46561;SDS011;32289;42.688;23.330;2023-04-01T05:30:39;10.75;;;3.42;;
46561;SDS011;32289;42.688;23.330;2023-04-01T05:34:21;11.63;;;3.45;;
46561;SDS011;32289;42.688;23.330;2023-04-01T05:38:02;6.15;;;3.35;;
46561;SDS011;32289;42.688;23.330;2023-04-01T05:41:43;7.28;;;3.83;;
46561;SDS011;32289;42.688;23.330;2023-04-01T05:45:25;5.63;;;3.22;;
46561;SDS011;32289;42.688;23.330;2023-04-01T05:49:05;12.18;;;3.63;;
46561;SDS011;32289;42.688;23.330;2023-04-01T05:52:46;7.03;;;3.13;;
46561;SDS011;32289;42.688;23.330;2023-04-01T05:56:27;5.32;;;2.67;;
46561;SDS011;32289;42.688;23.330;2023-04-01T06:00:07;11.15;;;2.63;;
46561;SDS011;32289;42.688;23.330;2023-04-01T06:03:49;9.13;;;3.15;;
46561;SDS011;32289;42.688;23.330;2023-04-01T06:07:30;7.53;;;2.80;;
46561;SDS011;32289;42.688;23.330;2023-04-01T06:11:19;4.32;;;2.50;;
46561;SDS011;32289;42.688;23.330;2023-04-01T06:34:44;6.25;;;1.63;;
46561;SDS011;32289;42.688;23.330;2023-04-01T06:38:41;10.57;;;2.30;;
46561;SDS011;32289;42.688;23.330;2023-04-01T06:58:23;9.55;;;2.53;;
46561;SDS011;32289;42.688;23.330;2023-04-01T07:05:52;6.35;;;2.28;;
46561;SDS011;32289;42.688;23.330;2023-04-01T07:09:37;9.68;;;2.90;;
46561;SDS011;32289;42.688;23.330;2023-04-01T07:13:25;5.72;;;2.13;;
46561;SDS011;32289;42.688;23.330;2023-04-01T07:17:09;15.85;;;2.70;;
46561;SDS011;32289;42.688;23.330;2023-04-01T07:20:55;7.82;;;2.53;;
46561;SDS011;32289;42.688;23.330;2023-04-01T07:24:37;5.35;;;2.17;;
46561;SDS011;32289;42.688;23.330;2023-04-01T07:28:21;7.95;;;2.28;;
46561;SDS011;32289;42.688;23.330;2023-04-01T07:47:12;6.07;;;2.67;;
46561;SDS011;32289;42.688;23.330;2023-04-01T07:51:16;6.65;;;2.85;;
46561;SDS011;32289;42.688;23.330;2023-04-01T07:55:20;5.63;;;2.65;;
46561;SDS011;32289;42.688;23.330;2023-04-01T08:14:59;9.30;;;3.08;;
46561;SDS011;32289;42.688;23.330;2023-04-01T08:23:22;8.03;;;2.80;;
46561;SDS011;32289;42.688;23.330;2023-04-01T08:31:30;11.20;;;3.13;;
46561;SDS011;32289;42.688;23.330;2023-04-01T08:35:20;6.22;;;2.50;;
46561;SDS011;32289;42.688;23.330;2023-04-01T08:39:30;5.43;;;2.63;;
46561;SDS011;32289;42.688;23.330;2023-04-01T08:43:25;9.90;;;2.53;;
46561;SDS011;32289;42.688;23.330;2023-04-01T09:00:07;3.67;;;2.03;;
46561;SDS011;32289;42.688;23.330;2023-04-01T09:16:16;3.30;;;1.63;;
46561;SDS011;32289;42.688;23.330;2023-04-01T09:37:19;3.33;;;1.45;;
46561;SDS011;32289;42.688;23.330;2023-04-01T09:53:36;10.13;;;3.15;;
46561;SDS011;32289;42.688;23.330;2023-04-01T09:57:47;4.38;;;1.83;;
46561;SDS011;32289;42.688;23.330;2023-04-01T10:05:58;6.93;;;2.17;;
46561;SDS011;32289;42.688;23.330;2023-04-01T10:34:08;3.80;;;1.40;;
46561;SDS011;32289;42.688;23.330;2023-04-01T11:07:22;5.23;;;2.60;;
46561;SDS011;32289;42.688;23.330;2023-04-01T11:28:08;12.90;;;5.40;;
46561;SDS011;32289;42.688;23.330;2023-04-01T11:32:12;12.60;;;5.05;;
46561;SDS011;32289;42.688;23.330;2023-04-01T11:48:22;3.42;;;1.50;;
46561;SDS011;32289;42.688;23.330;2023-04-01T11:56:32;4.30;;;1.30;;
46561;SDS011;32289;42.688;23.330;2023-04-01T12:13:07;5.60;;;2.75;;
46561;SDS011;32289;42.688;23.330;2023-04-01T12:17:32;8.93;;;2.97;;
46561;SDS011;32289;42.688;23.330;2023-04-01T12:21:27;3.67;;;2.20;;
46561;SDS011;32289;42.688;23.330;2023-04-01T12:42:33;4.25;;;1.65;;
46561;SDS011;32289;42.688;23.330;2023-04-01T12:58:10;6.30;;;1.80;;
46561;SDS011;32289;42.688;23.330;2023-04-01T13:02:01;7.03;;;1.80;;
46561;SDS011;32289;42.688;23.330;2023-04-01T13:06:03;3.35;;;1.95;;
46561;SDS011;32289;42.688;23.330;2023-04-01T13:10:30;4.25;;;2.13;;
46561;SDS011;32289;42.688;23.330;2023-04-01T13:14:22;5.88;;;2.00;;
46561;SDS011;32289;42.688;23.330;2023-04-01T13:29:57;4.60;;;1.83;;
46561;SDS011;32289;42.688;23.330;2023-04-01T13:37:52;11.70;;;1.75;;
46561;SDS011;32289;42.688;23.330;2023-04-01T14:09:50;6.63;;;2.17;;
46561;SDS011;32289;42.688;23.330;2023-04-01T14:13:56;7.78;;;2.08;;
46561;SDS011;32289;42.688;23.330;2023-04-01T14:26:03;4.70;;;1.90;;
46561;SDS011;32289;42.688;23.330;2023-04-01T14:30:17;4.30;;;2.00;;
46561;SDS011;32289;42.688;23.330;2023-04-01T14:42:21;1.98;;;1.05;;
46561;SDS011;32289;42.688;23.330;2023-04-01T14:46:39;2.47;;;1.02;;
46561;SDS011;32289;42.688;23.330;2023-04-01T14:50:44;4.25;;;1.33;;
46561;SDS011;32289;42.688;23.330;2023-04-01T14:54:31;3.88;;;1.38;;
46561;SDS011;32289;42.688;23.330;2023-04-01T14:58:21;2.25;;;1.23;;
46561;SDS011;32289;42.688;23.330;2023-04-01T15:10:37;2.65;;;1.25;;
46561;SDS011;32289;42.688;23.330;2023-04-01T15:37:59;3.60;;;1.38;;
46561;SDS011;32289;42.688;23.330;2023-04-01T15:58:44;1.30;;;0.68;;
46561;SDS011;32289;42.688;23.330;2023-04-01T16:54:06;2.85;;;1.17;;
46561;SDS011;32289;42.688;23.330;2023-04-01T16:57:57;3.72;;;1.35;;
46561;SDS011;32289;42.688;23.330;2023-04-01T17:01:48;3.47;;;2.25;;
46561;SDS011;32289;42.688;23.330;2023-04-01T17:13:36;3.70;;;1.20;;
46561;SDS011;32289;42.688;23.330;2023-04-01T17:29:16;5.38;;;1.52;;
46561;SDS011;32289;42.688;23.330;2023-04-01T17:37:15;2.60;;;1.40;;
46561;SDS011;32289;42.688;23.330;2023-04-01T17:45:11;2.88;;;1.35;;
46561;SDS011;32289;42.688;23.330;2023-04-01T17:49:23;3.53;;;1.23;;
46561;SDS011;32289;42.688;23.330;2023-04-01T17:53:17;3.78;;;2.00;;
46561;SDS011;32289;42.688;23.330;2023-04-01T18:09:33;5.30;;;2.30;;
46561;SDS011;32289;42.688;23.330;2023-04-01T18:13:29;3.55;;;1.60;;
46561;SDS011;32289;42.688;23.330;2023-04-01T18:17:32;4.95;;;1.48;;
46561;SDS011;32289;42.688;23.330;2023-04-01T18:25:22;2.72;;;1.42;;
46561;SDS011;32289;42.688;23.330;2023-04-01T18:29:20;2.63;;;1.83;;
46561;SDS011;32289;42.688;23.330;2023-04-01T18:37:24;2.20;;;1.38;;
46561;SDS011;32289;42.688;23.330;2023-04-01T18:49:13;2.67;;;1.67;;
46561;SDS011;32289;42.688;23.330;2023-04-01T18:52:59;6.50;;;2.40;;
46561;SDS011;32289;42.688;23.330;2023-04-01T18:56:48;3.85;;;1.60;;
46561;SDS011;32289;42.688;23.330;2023-04-01T19:00:35;3.28;;;1.83;;
46561;SDS011;32289;42.688;23.330;2023-04-01T19:04:39;2.45;;;1.52;;
46561;SDS011;32289;42.688;23.330;2023-04-01T19:08:33;6.28;;;2.85;;
46561;SDS011;32289;42.688;23.330;2023-04-01T19:16:31;1.85;;;1.30;;
46561;SDS011;32289;42.688;23.330;2023-04-01T19:20:31;2.17;;;1.30;;
46561;SDS011;32289;42.688;23.330;2023-04-01T19:24:21;3.92;;;1.55;;
46561;SDS011;32289;42.688;23.330;2023-04-01T19:32:29;2.15;;;1.30;;
46561;SDS011;32289;42.688;23.330;2023-04-01T19:36:43;6.80;;;1.30;;
46561;SDS011;32289;42.688;23.330;2023-04-01T19:48:26;1.92;;;1.30;;
46561;SDS011;32289;42.688;23.330;2023-04-01T19:56:20;1.83;;;1.13;;
46561;SDS011;32289;42.688;23.330;2023-04-01T20:04:05;2.55;;;1.27;;
46561;SDS011;32289;42.688;23.330;2023-04-01T20:07:52;4.47;;;1.02;;
46561;SDS011;32289;42.688;23.330;2023-04-01T20:15:58;1.27;;;0.90;;
46561;SDS011;32289;42.688;23.330;2023-04-01T20:20:30;2.58;;;1.00;;
46561;SDS011;32289;42.688;23.330;2023-04-01T20:23:59;2.55;;;0.80;;
46561;SDS011;32289;42.688;23.330;2023-04-01T20:27:54;4.28;;;1.70;;
46561;SDS011;32289;42.688;23.330;2023-04-01T20:31:50;1.80;;;0.93;;
46561;SDS011;32289;42.688;23.330;2023-04-01T20:48:40;4.47;;;0.80;;
46561;SDS011;32289;42.688;23.330;2023-04-01T20:52:34;1.77;;;0.85;;
46561;SDS011;32289;42.688;23.330;2023-04-01T21:07:49;1.33;;;0.77;;
46561;SDS011;32289;42.688;23.330;2023-04-01T21:20:04;2.80;;;1.30;;
46561;SDS011;32289;42.688;23.330;2023-04-01T21:24:23;2.85;;;1.08;;
46561;SDS011;32289;42.688;23.330;2023-04-01T21:28:26;2.55;;;1.00;;
46561;SDS011;32289;42.688;23.330;2023-04-01T21:40:32;1.90;;;0.70;;
46561;SDS011;32289;42.688;23.330;2023-04-01T22:13:10;3.38;;;0.90;;
46561;SDS011;32289;42.688;23.330;2023-04-01T22:17:03;1.65;;;0.88;;
46561;SDS011;32289;42.688;23.330;2023-04-01T22:28:39;1.40;;;0.70;;
46561;SDS011;32289;42.688;23.330;2023-04-01T22:32:42;2.00;;;0.68;;
46561;SDS011;32289;42.688;23.330;2023-04-01T22:44:30;4.10;;;1.08;;
46561;SDS011;32289;42.688;23.330;2023-04-01T22:52:30;2.00;;;0.60;;
46561;SDS011;32289;42.688;23.330;2023-04-01T22:56:15;0.82;;;0.50;;
46561;SDS011;32289;42.688;23.330;2023-04-01T23:00:14;1.38;;;0.90;;
46561;SDS011;32289;42.688;23.330;2023-04-01T23:04:00;1.35;;;0.80;;
46561;SDS011;32289;42.688;23.330;2023-04-01T23:11:50;0.60;;;0.43;;
46561;SDS011;32289;42.688;23.330;2023-04-01T23:15:40;1.75;;;0.82;;
46561;SDS011;32289;42.688;23.330;2023-04-01T23:19:25;1.00;;;0.50;;
46561;SDS011;32289;42.688;23.330;2023-04-01T23:35:15;0.95;;;0.63;;
46561;SDS011;32289;42.688;23.330;2023-04-01T23:39:03;1.50;;;0.70;;
46561;SDS011;32289;42.688;23.330;2023-04-01T23:42:49;1.73;;;0.85;;
46561;SDS011;32289;42.688;23.330;2023-04-01T23:46:30;2.40;;;0.65;;
46561;SDS011;32289;42.688;23.330;2023-04-01T23:50:17;0.60;;;0.40;;
46561;SDS011;32289;42.688;23.330;2023-04-01T23:54:10;0.65;;;0.43;;
